sensor_id;sensor_type;location;lat;lon;timestamp;P1;durP1;ratioP1;P2;durP2;ratioP2
78871;SDS011;68247;43.514;1.502;2023-07-13T00:01:14;5.63;;;2.55;;
78871;SDS011;68247;43.514;1.502;2023-07-13T00:03:41;4.70;;;2.67;;
78871;SDS011;68247;43.514;1.502;2023-07-13T00:06:07;6.30;;;2.40;;
78871;SDS011;68247;43.514;1.502;2023-07-13T00:08:33;5.97;;;2.70;;
78871;SDS011;68247;43.514;1.502;2023-07-13T00:10:59;5.43;;;2.37;;
78871;SDS011;68247;43.514;1.502;2023-07-13T00:13:25;7.65;;;2.70;;
78871;SDS011;68247;43.514;1.502;2023-07-13T00:15:51;6.37;;;2.87;;
78871;SDS011;68247;43.514;1.502;2023-07-13T00:18:18;4.75;;;2.38;;
78871;SDS011;68247;43.514;1.502;2023-07-13T00:20:44;8.25;;;2.53;;
78871;SDS011;68247;43.514;1.502;2023-07-13T00:23:10;4.97;;;2.70;;
78871;SDS011;68247;43.514;1.502;2023-07-13T00:25:35;7.20;;;2.80;;
78871;SDS011;68247;43.514;1.502;2023-07-13T00:28:00;8.13;;;2.70;;
78871;SDS011;68247;43.514;1.502;2023-07-13T00:30:26;5.18;;;2.45;;
78871;SDS011;68247;43.514;1.502;2023-07-13T00:32:51;5.80;;;2.67;;
78871;SDS011;68247;43.514;1.502;2023-07-13T00:35:17;4.70;;;2.57;;
78871;SDS011;68247;43.514;1.502;2023-07-13T00:37:42;5.90;;;3.00;;
78871;SDS011;68247;43.514;1.502;2023-07-13T00:40:09;5.32;;;2.80;;
78871;SDS011;68247;43.514;1.502;2023-07-13T00:42:36;5.05;;;2.75;;
78871;SDS011;68247;43.514;1.502;2023-07-13T00:47:39;4.95;;;2.53;;
78871;SDS011;68247;43.514;1.502;2023-07-13T00:50:06;4.90;;;2.42;;
78871;SDS011;68247;43.514;1.502;2023-07-13T00:52:33;5.50;;;2.50;;
78871;SDS011;68247;43.514;1.502;2023-07-13T00:55:00;6.35;;;2.63;;
78871;SDS011;68247;43.514;1.502;2023-07-13T00:57:26;5.35;;;2.70;;
78871;SDS011;68247;43.514;1.502;2023-07-13T00:59:53;4.13;;;2.43;;
78871;SDS011;68247;43.514;1.502;2023-07-13T01:02:21;5.18;;;2.30;;
78871;SDS011;68247;43.514;1.502;2023-07-13T01:04:47;5.57;;;2.60;;
78871;SDS011;68247;43.514;1.502;2023-07-13T01:07:13;5.43;;;2.70;;
78871;SDS011;68247;43.514;1.502;2023-07-13T01:09:38;5.25;;;2.60;;
78871;SDS011;68247;43.514;1.502;2023-07-13T01:12:04;6.97;;;3.13;;
78871;SDS011;68247;43.514;1.502;2023-07-13T01:14:30;4.95;;;2.67;;
78871;SDS011;68247;43.514;1.502;2023-07-13T01:16:55;4.43;;;2.30;;
78871;SDS011;68247;43.514;1.502;2023-07-13T01:19:35;5.75;;;2.40;;
78871;SDS011;68247;43.514;1.502;2023-07-13T01:22:13;5.75;;;2.80;;
78871;SDS011;68247;43.514;1.502;2023-07-13T01:24:42;4.70;;;2.97;;
78871;SDS011;68247;43.514;1.502;2023-07-13T01:27:10;6.63;;;2.97;;
78871;SDS011;68247;43.514;1.502;2023-07-13T01:29:37;4.97;;;2.78;;
78871;SDS011;68247;43.514;1.502;2023-07-13T01:32:07;5.00;;;2.80;;
78871;SDS011;68247;43.514;1.502;2023-07-13T01:34:34;6.13;;;2.20;;
78871;SDS011;68247;43.514;1.502;2023-07-13T01:37:00;6.50;;;2.57;;
78871;SDS011;68247;43.514;1.502;2023-07-13T01:39:25;4.47;;;2.53;;
78871;SDS011;68247;43.514;1.502;2023-07-13T01:41:51;6.70;;;2.70;;
78871;SDS011;68247;43.514;1.502;2023-07-13T01:44:16;5.10;;;2.40;;
78871;SDS011;68247;43.514;1.502;2023-07-13T01:46:41;5.40;;;2.10;;
78871;SDS011;68247;43.514;1.502;2023-07-13T01:49:07;4.83;;;2.40;;
78871;SDS011;68247;43.514;1.502;2023-07-13T01:51:32;6.60;;;2.33;;
78871;SDS011;68247;43.514;1.502;2023-07-13T01:53:58;4.47;;;2.10;;
78871;SDS011;68247;43.514;1.502;2023-07-13T01:56:23;6.50;;;2.40;;
78871;SDS011;68247;43.514;1.502;2023-07-13T01:58:49;4.23;;;2.07;;
78871;SDS011;68247;43.514;1.502;2023-07-13T02:01:14;5.10;;;2.10;;
78871;SDS011;68247;43.514;1.502;2023-07-13T02:03:40;6.00;;;2.47;;
78871;SDS011;68247;43.514;1.502;2023-07-13T02:06:05;5.30;;;2.33;;
78871;SDS011;68247;43.514;1.502;2023-07-13T02:08:32;4.60;;;2.28;;
78871;SDS011;68247;43.514;1.502;2023-07-13T02:10:58;7.90;;;2.70;;
78871;SDS011;68247;43.514;1.502;2023-07-13T02:13:23;4.73;;;2.40;;
78871;SDS011;68247;43.514;1.502;2023-07-13T02:15:52;3.67;;;2.10;;
78871;SDS011;68247;43.514;1.502;2023-07-13T02:18:17;5.03;;;1.98;;
78871;SDS011;68247;43.514;1.502;2023-07-13T02:20:43;5.13;;;2.20;;
78871;SDS011;68247;43.514;1.502;2023-07-13T02:23:08;6.72;;;2.22;;
78871;SDS011;68247;43.514;1.502;2023-07-13T02:25:34;5.63;;;2.30;;
78871;SDS011;68247;43.514;1.502;2023-07-13T02:27:59;4.20;;;2.10;;
78871;SDS011;68247;43.514;1.502;2023-07-13T02:30:25;4.75;;;2.20;;
78871;SDS011;68247;43.514;1.502;2023-07-13T02:32:50;5.03;;;1.97;;
78871;SDS011;68247;43.514;1.502;2023-07-13T02:35:16;6.87;;;2.30;;
78871;SDS011;68247;43.514;1.502;2023-07-13T02:37:41;4.80;;;2.03;;
78871;SDS011;68247;43.514;1.502;2023-07-13T02:40:07;4.65;;;2.35;;
78871;SDS011;68247;43.514;1.502;2023-07-13T02:42:34;6.60;;;2.30;;
78871;SDS011;68247;43.514;1.502;2023-07-13T02:44:59;6.63;;;2.60;;
78871;SDS011;68247;43.514;1.502;2023-07-13T02:47:25;4.57;;;2.10;;
78871;SDS011;68247;43.514;1.502;2023-07-13T02:49:51;6.77;;;2.10;;
78871;SDS011;68247;43.514;1.502;2023-07-13T02:52:17;5.50;;;2.28;;
78871;SDS011;68247;43.514;1.502;2023-07-13T02:54:42;5.43;;;2.60;;
78871;SDS011;68247;43.514;1.502;2023-07-13T02:57:08;5.37;;;2.30;;
78871;SDS011;68247;43.514;1.502;2023-07-13T02:59:33;4.80;;;2.40;;
78871;SDS011;68247;43.514;1.502;2023-07-13T03:02:00;5.27;;;2.60;;
78871;SDS011;68247;43.514;1.502;2023-07-13T03:04:26;5.22;;;2.05;;
78871;SDS011;68247;43.514;1.502;2023-07-13T03:06:51;5.93;;;2.50;;
78871;SDS011;68247;43.514;1.502;2023-07-13T03:09:17;4.70;;;2.10;;
78871;SDS011;68247;43.514;1.502;2023-07-13T03:11:42;6.03;;;2.53;;
78871;SDS011;68247;43.514;1.502;2023-07-13T03:14:08;3.80;;;2.20;;
78871;SDS011;68247;43.514;1.502;2023-07-13T03:16:33;7.72;;;2.22;;
78871;SDS011;68247;43.514;1.502;2023-07-13T03:18:59;5.07;;;1.93;;
78871;SDS011;68247;43.514;1.502;2023-07-13T03:21:24;4.80;;;2.20;;
78871;SDS011;68247;43.514;1.502;2023-07-13T03:23:50;7.00;;;3.00;;
78871;SDS011;68247;43.514;1.502;2023-07-13T03:26:17;6.83;;;2.20;;
78871;SDS011;68247;43.514;1.502;2023-07-13T03:28:44;5.53;;;2.30;;
78871;SDS011;68247;43.514;1.502;2023-07-13T03:31:17;6.40;;;2.40;;
78871;SDS011;68247;43.514;1.502;2023-07-13T03:33:45;8.10;;;2.47;;
78871;SDS011;68247;43.514;1.502;2023-07-13T03:36:13;5.75;;;1.85;;
78871;SDS011;68247;43.514;1.502;2023-07-13T03:38:49;8.43;;;2.40;;
78871;SDS011;68247;43.514;1.502;2023-07-13T03:41:17;4.47;;;2.03;;
78871;SDS011;68247;43.514;1.502;2023-07-13T03:43:43;7.20;;;2.38;;
78871;SDS011;68247;43.514;1.502;2023-07-13T03:46:09;6.90;;;2.60;;
78871;SDS011;68247;43.514;1.502;2023-07-13T03:48:34;7.30;;;2.05;;
78871;SDS011;68247;43.514;1.502;2023-07-13T03:51:00;6.67;;;2.00;;
78871;SDS011;68247;43.514;1.502;2023-07-13T03:53:26;5.55;;;2.00;;
78871;SDS011;68247;43.514;1.502;2023-07-13T03:55:52;6.77;;;2.07;;
78871;SDS011;68247;43.514;1.502;2023-07-13T03:58:28;7.18;;;2.20;;
78871;SDS011;68247;43.514;1.502;2023-07-13T04:00:58;6.63;;;1.90;;
78871;SDS011;68247;43.514;1.502;2023-07-13T04:03:24;5.95;;;1.88;;
78871;SDS011;68247;43.514;1.502;2023-07-13T04:05:50;6.03;;;2.22;;
78871;SDS011;68247;43.514;1.502;2023-07-13T04:08:16;7.57;;;2.07;;
78871;SDS011;68247;43.514;1.502;2023-07-13T04:10:42;5.40;;;1.92;;
78871;SDS011;68247;43.514;1.502;2023-07-13T04:13:07;7.32;;;2.10;;
78871;SDS011;68247;43.514;1.502;2023-07-13T04:15:33;6.37;;;1.90;;
78871;SDS011;68247;43.514;1.502;2023-07-13T04:17:58;6.13;;;1.90;;
78871;SDS011;68247;43.514;1.502;2023-07-13T04:20:24;6.15;;;2.28;;
78871;SDS011;68247;43.514;1.502;2023-07-13T04:22:50;5.40;;;2.10;;
78871;SDS011;68247;43.514;1.502;2023-07-13T04:25:16;4.93;;;2.33;;
78871;SDS011;68247;43.514;1.502;2023-07-13T04:27:42;7.77;;;2.40;;
78871;SDS011;68247;43.514;1.502;2023-07-13T04:30:07;7.32;;;2.10;;
78871;SDS011;68247;43.514;1.502;2023-07-13T04:32:33;7.00;;;2.13;;
78871;SDS011;68247;43.514;1.502;2023-07-13T04:34:58;5.75;;;2.40;;
78871;SDS011;68247;43.514;1.502;2023-07-13T04:37:24;6.47;;;2.47;;
78871;SDS011;68247;43.514;1.502;2023-07-13T04:39:50;7.10;;;2.33;;
78871;SDS011;68247;43.514;1.502;2023-07-13T04:42:16;5.53;;;2.17;;
78871;SDS011;68247;43.514;1.502;2023-07-13T04:44:42;7.13;;;2.40;;
78871;SDS011;68247;43.514;1.502;2023-07-13T04:47:12;6.28;;;2.90;;
78871;SDS011;68247;43.514;1.502;2023-07-13T04:49:37;5.00;;;2.00;;
78871;SDS011;68247;43.514;1.502;2023-07-13T04:52:03;5.63;;;2.00;;
78871;SDS011;68247;43.514;1.502;2023-07-13T04:54:28;7.03;;;2.27;;
78871;SDS011;68247;43.514;1.502;2023-07-13T04:56:54;6.80;;;2.10;;
78871;SDS011;68247;43.514;1.502;2023-07-13T04:59:19;6.47;;;1.83;;
78871;SDS011;68247;43.514;1.502;2023-07-13T05:01:45;6.07;;;2.10;;
78871;SDS011;68247;43.514;1.502;2023-07-13T05:04:11;5.82;;;1.70;;
78871;SDS011;68247;43.514;1.502;2023-07-13T05:06:36;4.80;;;2.10;;
78871;SDS011;68247;43.514;1.502;2023-07-13T05:09:02;5.85;;;1.90;;
78871;SDS011;68247;43.514;1.502;2023-07-13T05:11:28;5.13;;;1.80;;
78871;SDS011;68247;43.514;1.502;2023-07-13T05:13:53;4.38;;;1.75;;
78871;SDS011;68247;43.514;1.502;2023-07-13T05:16:19;6.47;;;1.80;;
78871;SDS011;68247;43.514;1.502;2023-07-13T05:18:44;4.30;;;1.83;;
78871;SDS011;68247;43.514;1.502;2023-07-13T05:21:10;4.87;;;1.70;;
78871;SDS011;68247;43.514;1.502;2023-07-13T05:23:36;3.60;;;1.57;;
78871;SDS011;68247;43.514;1.502;2023-07-13T05:26:02;6.30;;;2.13;;
78871;SDS011;68247;43.514;1.502;2023-07-13T05:28:28;6.85;;;2.42;;
78871;SDS011;68247;43.514;1.502;2023-07-13T05:30:55;5.20;;;1.90;;
78871;SDS011;68247;43.514;1.502;2023-07-13T05:33:20;7.73;;;1.90;;
78871;SDS011;68247;43.514;1.502;2023-07-13T05:35:46;8.53;;;2.00;;
78871;SDS011;68247;43.514;1.502;2023-07-13T05:38:12;3.87;;;1.63;;
78871;SDS011;68247;43.514;1.502;2023-07-13T05:40:37;6.00;;;1.80;;
78871;SDS011;68247;43.514;1.502;2023-07-13T05:43:03;6.67;;;1.77;;
78871;SDS011;68247;43.514;1.502;2023-07-13T05:45:28;7.03;;;1.90;;
78871;SDS011;68247;43.514;1.502;2023-07-13T05:47:54;6.67;;;2.13;;
78871;SDS011;68247;43.514;1.502;2023-07-13T05:50:20;7.20;;;1.60;;
78871;SDS011;68247;43.514;1.502;2023-07-13T05:52:46;5.20;;;1.58;;
78871;SDS011;68247;43.514;1.502;2023-07-13T05:55:12;7.17;;;1.87;;
78871;SDS011;68247;43.514;1.502;2023-07-13T05:57:37;6.88;;;2.03;;
78871;SDS011;68247;43.514;1.502;2023-07-13T06:00:03;5.33;;;2.10;;
78871;SDS011;68247;43.514;1.502;2023-07-13T06:02:28;7.45;;;1.70;;
78871;SDS011;68247;43.514;1.502;2023-07-13T06:04:54;5.50;;;1.43;;
78871;SDS011;68247;43.514;1.502;2023-07-13T06:07:19;6.10;;;1.70;;
78871;SDS011;68247;43.514;1.502;2023-07-13T06:09:45;6.47;;;1.70;;
78871;SDS011;68247;43.514;1.502;2023-07-13T06:12:10;7.13;;;1.95;;
78871;SDS011;68247;43.514;1.502;2023-07-13T06:14:36;7.53;;;1.93;;
78871;SDS011;68247;43.514;1.502;2023-07-13T06:17:01;7.60;;;1.83;;
78871;SDS011;68247;43.514;1.502;2023-07-13T06:19:27;7.03;;;1.60;;
78871;SDS011;68247;43.514;1.502;2023-07-13T06:21:52;5.97;;;1.60;;
78871;SDS011;68247;43.514;1.502;2023-07-13T06:24:17;5.00;;;1.60;;
78871;SDS011;68247;43.514;1.502;2023-07-13T06:26:43;6.07;;;1.50;;
78871;SDS011;68247;43.514;1.502;2023-07-13T06:29:08;6.47;;;1.47;;
78871;SDS011;68247;43.514;1.502;2023-07-13T06:31:34;5.07;;;1.42;;
78871;SDS011;68247;43.514;1.502;2023-07-13T06:33:59;7.47;;;1.63;;
78871;SDS011;68247;43.514;1.502;2023-07-13T06:36:25;5.33;;;1.63;;
78871;SDS011;68247;43.514;1.502;2023-07-13T06:38:50;5.40;;;1.60;;
78871;SDS011;68247;43.514;1.502;2023-07-13T06:41:16;4.40;;;1.60;;
78871;SDS011;68247;43.514;1.502;2023-07-13T06:43:41;5.23;;;1.50;;
78871;SDS011;68247;43.514;1.502;2023-07-13T06:46:07;5.33;;;1.93;;
78871;SDS011;68247;43.514;1.502;2023-07-13T06:48:33;4.03;;;1.50;;
78871;SDS011;68247;43.514;1.502;2023-07-13T06:50:58;7.60;;;1.50;;
78871;SDS011;68247;43.514;1.502;2023-07-13T06:53:24;5.70;;;1.37;;
78871;SDS011;68247;43.514;1.502;2023-07-13T06:55:49;7.17;;;1.53;;
78871;SDS011;68247;43.514;1.502;2023-07-13T06:58:17;5.53;;;1.63;;
78871;SDS011;68247;43.514;1.502;2023-07-13T07:00:42;5.35;;;1.83;;
78871;SDS011;68247;43.514;1.502;2023-07-13T07:03:08;7.77;;;1.60;;
78871;SDS011;68247;43.514;1.502;2023-07-13T07:05:33;6.37;;;1.90;;
78871;SDS011;68247;43.514;1.502;2023-07-13T07:07:59;4.90;;;1.70;;
78871;SDS011;68247;43.514;1.502;2023-07-13T07:10:25;5.43;;;1.65;;
78871;SDS011;68247;43.514;1.502;2023-07-13T07:12:50;4.43;;;1.70;;
78871;SDS011;68247;43.514;1.502;2023-07-13T07:15:18;5.90;;;1.40;;
78871;SDS011;68247;43.514;1.502;2023-07-13T07:17:43;3.55;;;1.40;;
78871;SDS011;68247;43.514;1.502;2023-07-13T07:20:09;5.40;;;1.20;;
78871;SDS011;68247;43.514;1.502;2023-07-13T07:22:35;4.32;;;1.40;;
78871;SDS011;68247;43.514;1.502;2023-07-13T07:25:00;4.17;;;1.37;;
78871;SDS011;68247;43.514;1.502;2023-07-13T07:27:26;5.30;;;1.53;;
78871;SDS011;68247;43.514;1.502;2023-07-13T07:29:52;5.70;;;1.42;;
78871;SDS011;68247;43.514;1.502;2023-07-13T07:32:18;5.37;;;1.30;;
78871;SDS011;68247;43.514;1.502;2023-07-13T07:34:44;4.35;;;1.65;;
78871;SDS011;68247;43.514;1.502;2023-07-13T07:37:11;3.58;;;1.30;;
78871;SDS011;68247;43.514;1.502;2023-07-13T07:39:37;7.40;;;1.60;;
78871;SDS011;68247;43.514;1.502;2023-07-13T07:42:03;5.63;;;1.27;;
78871;SDS011;68247;43.514;1.502;2023-07-13T07:44:30;5.60;;;1.60;;
78871;SDS011;68247;43.514;1.502;2023-07-13T07:46:59;5.22;;;1.40;;
78871;SDS011;68247;43.514;1.502;2023-07-13T07:49:24;6.47;;;1.60;;
78871;SDS011;68247;43.514;1.502;2023-07-13T07:51:50;4.07;;;1.48;;
78871;SDS011;68247;43.514;1.502;2023-07-13T07:54:16;4.23;;;1.33;;
78871;SDS011;68247;43.514;1.502;2023-07-13T07:56:41;3.72;;;1.70;;
78871;SDS011;68247;43.514;1.502;2023-07-13T07:59:07;5.80;;;1.40;;
78871;SDS011;68247;43.514;1.502;2023-07-13T08:01:32;4.53;;;1.60;;
78871;SDS011;68247;43.514;1.502;2023-07-13T08:03:58;3.97;;;1.50;;
78871;SDS011;68247;43.514;1.502;2023-07-13T08:06:23;4.53;;;1.20;;
78871;SDS011;68247;43.514;1.502;2023-07-13T08:08:49;3.92;;;1.42;;
78871;SDS011;68247;43.514;1.502;2023-07-13T08:11:15;4.07;;;1.33;;
78871;SDS011;68247;43.514;1.502;2023-07-13T08:13:41;4.10;;;1.23;;
78871;SDS011;68247;43.514;1.502;2023-07-13T08:16:06;5.13;;;1.10;;
78871;SDS011;68247;43.514;1.502;2023-07-13T08:18:32;4.20;;;1.50;;
78871;SDS011;68247;43.514;1.502;2023-07-13T08:20:57;4.43;;;1.40;;
78871;SDS011;68247;43.514;1.502;2023-07-13T08:23:24;6.05;;;1.60;;
78871;SDS011;68247;43.514;1.502;2023-07-13T08:25:50;3.83;;;1.27;;
78871;SDS011;68247;43.514;1.502;2023-07-13T08:28:17;3.47;;;1.55;;
78871;SDS011;68247;43.514;1.502;2023-07-13T08:30:42;4.67;;;1.40;;
78871;SDS011;68247;43.514;1.502;2023-07-13T08:33:07;5.47;;;1.20;;
78871;SDS011;68247;43.514;1.502;2023-07-13T08:35:33;6.27;;;1.23;;
78871;SDS011;68247;43.514;1.502;2023-07-13T08:37:58;5.17;;;1.57;;
78871;SDS011;68247;43.514;1.502;2023-07-13T08:40:25;3.80;;;1.42;;
78871;SDS011;68247;43.514;1.502;2023-07-13T08:42:58;3.47;;;1.27;;
78871;SDS011;68247;43.514;1.502;2023-07-13T08:45:36;6.23;;;1.30;;
78871;SDS011;68247;43.514;1.502;2023-07-13T08:48:08;2.63;;;1.20;;
78871;SDS011;68247;43.514;1.502;2023-07-13T08:50:43;3.63;;;1.10;;
78871;SDS011;68247;43.514;1.502;2023-07-13T08:53:16;3.78;;;1.13;;
78871;SDS011;68247;43.514;1.502;2023-07-13T08:55:42;3.97;;;1.57;;
78871;SDS011;68247;43.514;1.502;2023-07-13T08:58:11;7.53;;;1.63;;
78871;SDS011;68247;43.514;1.502;2023-07-13T09:03:24;3.33;;;1.00;;
78871;SDS011;68247;43.514;1.502;2023-07-13T09:05:53;4.32;;;1.40;;
78871;SDS011;68247;43.514;1.502;2023-07-13T09:08:36;3.70;;;1.40;;
78871;SDS011;68247;43.514;1.502;2023-07-13T09:16:25;4.57;;;1.17;;
78871;SDS011;68247;43.514;1.502;2023-07-13T09:18:51;4.50;;;1.10;;
78871;SDS011;68247;43.514;1.502;2023-07-13T09:21:23;3.20;;;1.20;;
78871;SDS011;68247;43.514;1.502;2023-07-13T09:23:56;3.83;;;1.20;;
78871;SDS011;68247;43.514;1.502;2023-07-13T09:26:27;2.92;;;1.10;;
78871;SDS011;68247;43.514;1.502;2023-07-13T09:28:59;3.10;;;1.10;;
78871;SDS011;68247;43.514;1.502;2023-07-13T09:31:32;2.85;;;1.17;;
78871;SDS011;68247;43.514;1.502;2023-07-13T09:34:00;4.43;;;1.20;;
78871;SDS011;68247;43.514;1.502;2023-07-13T09:36:27;4.77;;;1.13;;
78871;SDS011;68247;43.514;1.502;2023-07-13T09:47:02;3.13;;;1.27;;
78871;SDS011;68247;43.514;1.502;2023-07-13T09:49:37;5.05;;;1.02;;
78871;SDS011;68247;43.514;1.502;2023-07-13T09:52:04;4.78;;;1.40;;
78871;SDS011;68247;43.514;1.502;2023-07-13T09:54:33;4.45;;;1.17;;
78871;SDS011;68247;43.514;1.502;2023-07-13T09:57:00;3.92;;;1.20;;
78871;SDS011;68247;43.514;1.502;2023-07-13T09:59:29;5.10;;;1.20;;
78871;SDS011;68247;43.514;1.502;2023-07-13T10:01:56;4.55;;;1.20;;
78871;SDS011;68247;43.514;1.502;2023-07-13T10:04:26;2.87;;;1.10;;
78871;SDS011;68247;43.514;1.502;2023-07-13T10:07:05;4.13;;;1.25;;
78871;SDS011;68247;43.514;1.502;2023-07-13T10:09:32;3.38;;;1.48;;
78871;SDS011;68247;43.514;1.502;2023-07-13T10:11:57;4.37;;;1.10;;
78871;SDS011;68247;43.514;1.502;2023-07-13T10:14:23;3.80;;;1.23;;
78871;SDS011;68247;43.514;1.502;2023-07-13T10:16:51;3.73;;;1.33;;
78871;SDS011;68247;43.514;1.502;2023-07-13T10:19:26;5.10;;;1.50;;
78871;SDS011;68247;43.514;1.502;2023-07-13T10:22:02;5.78;;;1.40;;
78871;SDS011;68247;43.514;1.502;2023-07-13T10:24:36;4.65;;;1.40;;
78871;SDS011;68247;43.514;1.502;2023-07-13T10:27:13;3.67;;;1.60;;
78871;SDS011;68247;43.514;1.502;2023-07-13T10:30:28;3.87;;;1.30;;
78871;SDS011;68247;43.514;1.502;2023-07-13T10:32:38;4.15;;;1.30;;
78871;SDS011;68247;43.514;1.502;2023-07-13T10:35:04;3.15;;;1.20;;
78871;SDS011;68247;43.514;1.502;2023-07-13T10:37:34;5.27;;;1.30;;
78871;SDS011;68247;43.514;1.502;2023-07-13T10:40:12;3.45;;;1.15;;
78871;SDS011;68247;43.514;1.502;2023-07-13T10:42:39;4.20;;;1.60;;
78871;SDS011;68247;43.514;1.502;2023-07-13T10:45:40;3.67;;;1.50;;
78871;SDS011;68247;43.514;1.502;2023-07-13T10:48:00;4.53;;;1.60;;
78871;SDS011;68247;43.514;1.502;2023-07-13T10:50:26;4.53;;;1.23;;
78871;SDS011;68247;43.514;1.502;2023-07-13T10:52:56;4.07;;;1.38;;
78871;SDS011;68247;43.514;1.502;2023-07-13T10:55:34;5.00;;;1.70;;
78871;SDS011;68247;43.514;1.502;2023-07-13T11:06:11;4.60;;;1.30;;
78871;SDS011;68247;43.514;1.502;2023-07-13T11:08:52;4.93;;;1.45;;
78871;SDS011;68247;43.514;1.502;2023-07-13T11:11:35;3.17;;;1.50;;
78871;SDS011;68247;43.514;1.502;2023-07-13T11:14:04;4.80;;;1.55;;
78871;SDS011;68247;43.514;1.502;2023-07-13T11:16:50;4.90;;;1.60;;
78871;SDS011;68247;43.514;1.502;2023-07-13T11:24:57;5.32;;;1.60;;
78871;SDS011;68247;43.514;1.502;2023-07-13T11:32:49;3.58;;;1.70;;
78871;SDS011;68247;43.514;1.502;2023-07-13T11:35:35;3.97;;;1.50;;
78871;SDS011;68247;43.514;1.502;2023-07-13T11:38:03;3.33;;;1.40;;
78871;SDS011;68247;43.514;1.502;2023-07-13T11:40:39;4.10;;;1.70;;
78871;SDS011;68247;43.514;1.502;2023-07-13T11:43:06;4.18;;;1.80;;
78871;SDS011;68247;43.514;1.502;2023-07-13T11:45:32;4.20;;;1.80;;
78871;SDS011;68247;43.514;1.502;2023-07-13T11:47:58;3.10;;;1.57;;
78871;SDS011;68247;43.514;1.502;2023-07-13T11:50:25;4.88;;;1.67;;
78871;SDS011;68247;43.514;1.502;2023-07-13T11:52:51;4.23;;;1.73;;
78871;SDS011;68247;43.514;1.502;2023-07-13T11:55:20;4.55;;;1.70;;
78871;SDS011;68247;43.514;1.502;2023-07-13T11:57:50;5.05;;;1.52;;
78871;SDS011;68247;43.514;1.502;2023-07-13T12:00:18;4.95;;;1.80;;
78871;SDS011;68247;43.514;1.502;2023-07-13T12:02:48;4.70;;;1.70;;
78871;SDS011;68247;43.514;1.502;2023-07-13T12:05:16;4.35;;;1.70;;
78871;SDS011;68247;43.514;1.502;2023-07-13T12:07:44;3.28;;;1.48;;
78871;SDS011;68247;43.514;1.502;2023-07-13T12:10:20;4.03;;;1.40;;
78871;SDS011;68247;43.514;1.502;2023-07-13T12:12:54;4.57;;;1.77;;
78871;SDS011;68247;43.514;1.502;2023-07-13T12:15:21;5.00;;;1.30;;
78871;SDS011;68247;43.514;1.502;2023-07-13T12:17:47;3.92;;;1.83;;
78871;SDS011;68247;43.514;1.502;2023-07-13T12:20:20;5.03;;;1.90;;
78871;SDS011;68247;43.514;1.502;2023-07-13T12:22:49;3.35;;;1.20;;
78871;SDS011;68247;43.514;1.502;2023-07-13T12:25:15;3.42;;;1.25;;
78871;SDS011;68247;43.514;1.502;2023-07-13T12:27:42;5.13;;;1.50;;
78871;SDS011;68247;43.514;1.502;2023-07-13T12:30:28;3.97;;;1.52;;
78871;SDS011;68247;43.514;1.502;2023-07-13T12:33:00;4.57;;;1.50;;
78871;SDS011;68247;43.514;1.502;2023-07-13T12:35:30;4.60;;;1.60;;
78871;SDS011;68247;43.514;1.502;2023-07-13T12:37:58;2.92;;;1.30;;
78871;SDS011;68247;43.514;1.502;2023-07-13T12:40:27;4.03;;;1.42;;
78871;SDS011;68247;43.514;1.502;2023-07-13T12:42:57;5.00;;;1.60;;
78871;SDS011;68247;43.514;1.502;2023-07-13T12:45:26;3.53;;;1.63;;
78871;SDS011;68247;43.514;1.502;2023-07-13T12:47:54;5.18;;;1.67;;
78871;SDS011;68247;43.514;1.502;2023-07-13T12:50:27;6.15;;;1.60;;
78871;SDS011;68247;43.514;1.502;2023-07-13T12:52:59;3.20;;;1.10;;
78871;SDS011;68247;43.514;1.502;2023-07-13T12:55:37;3.88;;;1.38;;
78871;SDS011;68247;43.514;1.502;2023-07-13T12:58:06;3.60;;;1.40;;
78871;SDS011;68247;43.514;1.502;2023-07-13T13:00:35;3.95;;;1.40;;
78871;SDS011;68247;43.514;1.502;2023-07-13T13:06:23;5.10;;;1.90;;
78871;SDS011;68247;43.514;1.502;2023-07-13T13:08:51;3.33;;;1.33;;
78871;SDS011;68247;43.514;1.502;2023-07-13T13:11:21;5.15;;;1.52;;
78871;SDS011;68247;43.514;1.502;2023-07-13T13:13:48;3.30;;;1.65;;
78871;SDS011;68247;43.514;1.502;2023-07-13T13:18:52;4.10;;;1.47;;
78871;SDS011;68247;43.514;1.502;2023-07-13T13:21:18;3.20;;;1.30;;
78871;SDS011;68247;43.514;1.502;2023-07-13T13:23:46;4.28;;;1.40;;
78871;SDS011;68247;43.514;1.502;2023-07-13T13:26:14;4.60;;;1.50;;
78871;SDS011;68247;43.514;1.502;2023-07-13T13:28:43;3.80;;;1.40;;
78871;SDS011;68247;43.514;1.502;2023-07-13T13:31:09;4.83;;;1.30;;
78871;SDS011;68247;43.514;1.502;2023-07-13T13:33:40;4.80;;;1.70;;
78871;SDS011;68247;43.514;1.502;2023-07-13T13:36:18;5.22;;;1.45;;
78871;SDS011;68247;43.514;1.502;2023-07-13T13:38:45;4.95;;;1.65;;
78871;SDS011;68247;43.514;1.502;2023-07-13T13:41:12;4.45;;;1.75;;
78871;SDS011;68247;43.514;1.502;2023-07-13T13:43:39;4.00;;;1.80;;
78871;SDS011;68247;43.514;1.502;2023-07-13T13:46:24;4.43;;;1.33;;
78871;SDS011;68247;43.514;1.502;2023-07-13T13:48:50;5.15;;;1.45;;
78871;SDS011;68247;43.514;1.502;2023-07-13T13:51:17;3.42;;;1.70;;
78871;SDS011;68247;43.514;1.502;2023-07-13T13:53:44;4.10;;;1.70;;
78871;SDS011;68247;43.514;1.502;2023-07-13T13:56:10;3.50;;;1.67;;
78871;SDS011;68247;43.514;1.502;2023-07-13T13:58:36;5.07;;;1.90;;
78871;SDS011;68247;43.514;1.502;2023-07-13T14:01:02;3.50;;;1.50;;
78871;SDS011;68247;43.514;1.502;2023-07-13T14:03:28;4.38;;;1.38;;
78871;SDS011;68247;43.514;1.502;2023-07-13T14:05:53;4.03;;;1.50;;
78871;SDS011;68247;43.514;1.502;2023-07-13T14:08:21;3.97;;;1.80;;
78871;SDS011;68247;43.514;1.502;2023-07-13T14:10:47;5.43;;;1.52;;
78871;SDS011;68247;43.514;1.502;2023-07-13T14:13:17;5.25;;;1.77;;
78871;SDS011;68247;43.514;1.502;2023-07-13T14:15:44;4.68;;;1.50;;
78871;SDS011;68247;43.514;1.502;2023-07-13T14:18:10;3.40;;;1.50;;
78871;SDS011;68247;43.514;1.502;2023-07-13T14:20:36;4.07;;;1.17;;
78871;SDS011;68247;43.514;1.502;2023-07-13T14:23:02;4.05;;;1.33;;
78871;SDS011;68247;43.514;1.502;2023-07-13T14:25:27;3.73;;;1.40;;
78871;SDS011;68247;43.514;1.502;2023-07-13T14:27:53;5.10;;;1.30;;
78871;SDS011;68247;43.514;1.502;2023-07-13T14:30:24;3.33;;;1.17;;
78871;SDS011;68247;43.514;1.502;2023-07-13T14:32:50;5.05;;;1.50;;
78871;SDS011;68247;43.514;1.502;2023-07-13T14:35:18;3.13;;;1.40;;
78871;SDS011;68247;43.514;1.502;2023-07-13T14:37:45;3.47;;;1.50;;
78871;SDS011;68247;43.514;1.502;2023-07-13T14:42:47;3.27;;;1.80;;
78871;SDS011;68247;43.514;1.502;2023-07-13T14:45:16;3.15;;;1.63;;
78871;SDS011;68247;43.514;1.502;2023-07-13T14:47:42;4.43;;;1.40;;
78871;SDS011;68247;43.514;1.502;2023-07-13T14:50:13;3.90;;;1.57;;
78871;SDS011;68247;43.514;1.502;2023-07-13T14:52:38;3.83;;;1.98;;
78871;SDS011;68247;43.514;1.502;2023-07-13T14:55:07;3.67;;;1.90;;
78871;SDS011;68247;43.514;1.502;2023-07-13T14:57:35;4.40;;;1.50;;
78871;SDS011;68247;43.514;1.502;2023-07-13T15:00:00;8.80;;;6.37;;
78871;SDS011;68247;43.514;1.502;2023-07-13T15:02:30;4.57;;;2.35;;
78871;SDS011;68247;43.514;1.502;2023-07-13T15:04:59;3.55;;;1.70;;
78871;SDS011;68247;43.514;1.502;2023-07-13T15:07:25;4.13;;;1.97;;
78871;SDS011;68247;43.514;1.502;2023-07-13T15:09:51;5.68;;;2.30;;
78871;SDS011;68247;43.514;1.502;2023-07-13T15:12:17;4.10;;;1.80;;
78871;SDS011;68247;43.514;1.502;2023-07-13T15:14:43;7.25;;;2.10;;
78871;SDS011;68247;43.514;1.502;2023-07-13T15:17:31;3.63;;;1.90;;
78871;SDS011;68247;43.514;1.502;2023-07-13T15:20:15;3.53;;;1.83;;
78871;SDS011;68247;43.514;1.502;2023-07-13T15:22:54;4.30;;;2.10;;
78871;SDS011;68247;43.514;1.502;2023-07-13T15:25:22;5.03;;;2.42;;
78871;SDS011;68247;43.514;1.502;2023-07-13T15:27:50;3.23;;;1.90;;
78871;SDS011;68247;43.514;1.502;2023-07-13T15:30:16;4.93;;;2.20;;
78871;SDS011;68247;43.514;1.502;2023-07-13T15:32:42;3.47;;;1.73;;
78871;SDS011;68247;43.514;1.502;2023-07-13T15:35:22;3.93;;;2.10;;
78871;SDS011;68247;43.514;1.502;2023-07-13T15:37:49;4.03;;;2.10;;